sensor_id;sensor_type;location;lat;lon;timestamp;temperature;humidity
22112;DHT22;11222;50.872;4.312;2023-04-03T00:00:14;5.20;99.90
22112;DHT22;11222;50.872;4.312;2023-04-03T00:02:40;5.20;99.90
22112;DHT22;11222;50.872;4.312;2023-04-03T00:05:06;5.10;99.90
22112;DHT22;11222;50.872;4.312;2023-04-03T00:07:32;5.10;99.90
22112;DHT22;11222;50.872;4.312;2023-04-03T00:09:58;5.10;99.90
22112;DHT22;11222;50.872;4.312;2023-04-03T00:12:23;5.00;99.90
22112;DHT22;11222;50.872;4.312;2023-04-03T00:14:49;5.00;99.90
22112;DHT22;11222;50.872;4.312;2023-04-03T00:17:15;5.00;99.90
22112;DHT22;11222;50.872;4.312;2023-04-03T00:19:41;5.00;99.90
22112;DHT22;11222;50.872;4.312;2023-04-03T00:22:06;5.00;99.90
22112;DHT22;11222;50.872;4.312;2023-04-03T00:24:32;5.00;99.90
22112;DHT22;11222;50.872;4.312;2023-04-03T00:26:58;5.10;99.90
22112;DHT22;11222;50.872;4.312;2023-04-03T00:29:23;5.10;99.90
22112;DHT22;11222;50.872;4.312;2023-04-03T00:31:49;5.10;99.90
22112;DHT22;11222;50.872;4.312;2023-04-03T00:34:15;5.10;99.90
22112;DHT22;11222;50.872;4.312;2023-04-03T00:36:41;5.10;99.90
22112;DHT22;11222;50.872;4.312;2023-04-03T00:39:06;5.00;99.90
22112;DHT22;11222;50.872;4.312;2023-04-03T00:41:32;5.00;99.90
22112;DHT22;11222;50.872;4.312;2023-04-03T00:43:58;5.00;99.90
22112;DHT22;11222;50.872;4.312;2023-04-03T00:46:23;5.00;99.90
22112;DHT22;11222;50.872;4.312;2023-04-03T00:48:49;5.00;99.90
22112;DHT22;11222;50.872;4.312;2023-04-03T00:51:24;5.00;99.90
22112;DHT22;11222;50.872;4.312;2023-04-03T00:54:02;4.90;99.90
22112;DHT22;11222;50.872;4.312;2023-04-03T00:56:29;4.90;99.90
22112;DHT22;11222;50.872;4.312;2023-04-03T00:59:02;4.90;99.90
22112;DHT22;11222;50.872;4.312;2023-04-03T01:01:29;4.80;99.90
22112;DHT22;11222;50.872;4.312;2023-04-03T01:03:56;4.80;99.90
22112;DHT22;11222;50.872;4.312;2023-04-03T01:06:27;4.90;99.90
22112;DHT22;11222;50.872;4.312;2023-04-03T01:08:53;4.80;99.90
22112;DHT22;11222;50.872;4.312;2023-04-03T01:11:21;4.80;99.90
22112;DHT22;11222;50.872;4.312;2023-04-03T01:13:47;4.70;99.90
22112;DHT22;11222;50.872;4.312;2023-04-03T01:16:14;4.70;99.90
22112;DHT22;11222;50.872;4.312;2023-04-03T01:18:40;4.70;99.90
22112;DHT22;11222;50.872;4.312;2023-04-03T01:26:18;4.70;99.90
22112;DHT22;11222;50.872;4.312;2023-04-03T01:28:43;4.70;99.90
22112;DHT22;11222;50.872;4.312;2023-04-03T01:31:20;4.70;99.90
22112;DHT22;11222;50.872;4.312;2023-04-03T01:33:47;4.70;99.90
22112;DHT22;11222;50.872;4.312;2023-04-03T01:36:16;4.70;99.90
22112;DHT22;11222;50.872;4.312;2023-04-03T01:38:42;4.60;99.90
22112;DHT22;11222;50.872;4.312;2023-04-03T01:41:08;4.60;99.90
22112;DHT22;11222;50.872;4.312;2023-04-03T01:43:34;4.60;99.90
22112;DHT22;11222;50.872;4.312;2023-04-03T01:45:59;4.60;99.90
22112;DHT22;11222;50.872;4.312;2023-04-03T01:48:25;4.50;99.90
22112;DHT22;11222;50.872;4.312;2023-04-03T01:50:51;4.40;99.90
22112;DHT22;11222;50.872;4.312;2023-04-03T01:53:17;4.40;99.90
22112;DHT22;11222;50.872;4.312;2023-04-03T01:55:42;4.30;99.90
22112;DHT22;11222;50.872;4.312;2023-04-03T01:58:08;4.30;99.90
22112;DHT22;11222;50.872;4.312;2023-04-03T02:00:34;4.30;99.90
22112;DHT22;11222;50.872;4.312;2023-04-03T02:02:59;4.20;99.90
22112;DHT22;11222;50.872;4.312;2023-04-03T02:05:25;4.20;99.90
22112;DHT22;11222;50.872;4.312;2023-04-03T02:07:51;4.30;99.90
22112;DHT22;11222;50.872;4.312;2023-04-03T02:10:17;4.30;99.90
22112;DHT22;11222;50.872;4.312;2023-04-03T02:12:43;4.30;99.90
22112;DHT22;11222;50.872;4.312;2023-04-03T02:15:09;4.30;99.90
22112;DHT22;11222;50.872;4.312;2023-04-03T02:17:35;4.20;99.90
22112;DHT22;11222;50.872;4.312;2023-04-03T02:20:01;4.10;99.90
22112;DHT22;11222;50.872;4.312;2023-04-03T02:22:28;4.10;99.90
22112;DHT22;11222;50.872;4.312;2023-04-03T02:24:54;4.00;99.90
22112;DHT22;11222;50.872;4.312;2023-04-03T02:27:20;4.10;99.90
22112;DHT22;11222;50.872;4.312;2023-04-03T02:29:45;4.00;99.90
22112;DHT22;11222;50.872;4.312;2023-04-03T02:32:11;4.10;99.90
22112;DHT22;11222;50.872;4.312;2023-04-03T02:34:37;4.10;99.90
22112;DHT22;11222;50.872;4.312;2023-04-03T02:37:02;4.20;99.90
22112;DHT22;11222;50.872;4.312;2023-04-03T02:39:28;4.20;99.90
22112;DHT22;11222;50.872;4.312;2023-04-03T02:41:54;4.30;99.90
22112;DHT22;11222;50.872;4.312;2023-04-03T02:44:19;4.30;99.90
22112;DHT22;11222;50.872;4.312;2023-04-03T02:46:45;4.20;99.90
22112;DHT22;11222;50.872;4.312;2023-04-03T02:49:11;4.20;99.90
22112;DHT22;11222;50.872;4.312;2023-04-03T02:51:36;4.20;99.90
22112;DHT22;11222;50.872;4.312;2023-04-03T02:54:02;4.10;99.90
22112;DHT22;11222;50.872;4.312;2023-04-03T02:56:28;4.00;99.90
22112;DHT22;11222;50.872;4.312;2023-04-03T02:58:53;3.90;99.90
22112;DHT22;11222;50.872;4.312;2023-04-03T03:01:19;4.00;99.90
22112;DHT22;11222;50.872;4.312;2023-04-03T03:03:45;4.00;99.90
22112;DHT22;11222;50.872;4.312;2023-04-03T03:06:13;3.90;99.90
22112;DHT22;11222;50.872;4.312;2023-04-03T03:08:40;3.90;99.90
22112;DHT22;11222;50.872;4.312;2023-04-03T03:11:06;4.00;99.90
22112;DHT22;11222;50.872;4.312;2023-04-03T03:13:33;3.90;99.90
22112;DHT22;11222;50.872;4.312;2023-04-03T03:15:59;4.00;99.90
22112;DHT22;11222;50.872;4.312;2023-04-03T03:18:25;4.00;99.90
22112;DHT22;11222;50.872;4.312;2023-04-03T03:20:57;4.00;99.90
22112;DHT22;11222;50.872;4.312;2023-04-03T03:23:24;4.20;99.90
22112;DHT22;11222;50.872;4.312;2023-04-03T03:25:56;4.10;99.90
22112;DHT22;11222;50.872;4.312;2023-04-03T03:28:22;4.00;99.90
22112;DHT22;11222;50.872;4.312;2023-04-03T03:30:48;4.00;99.90
22112;DHT22;11222;50.872;4.312;2023-04-03T03:33:13;3.90;99.90
22112;DHT22;11222;50.872;4.312;2023-04-03T03:35:39;3.90;99.90
22112;DHT22;11222;50.872;4.312;2023-04-03T03:38:05;4.00;99.90
22112;DHT22;11222;50.872;4.312;2023-04-03T03:40:31;4.00;99.90
22112;DHT22;11222;50.872;4.312;2023-04-03T03:42:57;4.10;99.90
22112;DHT22;11222;50.872;4.312;2023-04-03T03:45:22;4.20;99.90
22112;DHT22;11222;50.872;4.312;2023-04-03T03:47:48;4.10;99.90
22112;DHT22;11222;50.872;4.312;2023-04-03T03:50:14;4.10;99.90
22112;DHT22;11222;50.872;4.312;2023-04-03T03:52:39;4.10;99.90
22112;DHT22;11222;50.872;4.312;2023-04-03T03:55:06;4.00;99.90
22112;DHT22;11222;50.872;4.312;2023-04-03T03:57:32;3.90;99.90
22112;DHT22;11222;50.872;4.312;2023-04-03T03:59:57;3.90;99.90
22112;DHT22;11222;50.872;4.312;2023-04-03T04:02:23;4.00;99.90
22112;DHT22;11222;50.872;4.312;2023-04-03T04:04:49;4.00;99.90
22112;DHT22;11222;50.872;4.312;2023-04-03T04:07:14;4.10;99.90
22112;DHT22;11222;50.872;4.312;2023-04-03T04:09:40;4.10;99.90
22112;DHT22;11222;50.872;4.312;2023-04-03T04:12:06;4.10;99.90
22112;DHT22;11222;50.872;4.312;2023-04-03T04:14:31;4.00;99.90
22112;DHT22;11222;50.872;4.312;2023-04-03T04:16:57;3.80;99.90
22112;DHT22;11222;50.872;4.312;2023-04-03T04:19:23;3.80;99.90
22112;DHT22;11222;50.872;4.312;2023-04-03T04:21:49;3.70;99.90
22112;DHT22;11222;50.872;4.312;2023-04-03T04:24:15;3.60;99.90
22112;DHT22;11222;50.872;4.312;2023-04-03T04:26:40;3.60;99.90
22112;DHT22;11222;50.872;4.312;2023-04-03T04:29:06;3.50;99.90
22112;DHT22;11222;50.872;4.312;2023-04-03T04:31:32;3.40;99.90
22112;DHT22;11222;50.872;4.312;2023-04-03T04:33:57;3.40;99.90
22112;DHT22;11222;50.872;4.312;2023-04-03T04:36:23;3.40;99.90
22112;DHT22;11222;50.872;4.312;2023-04-03T04:38:49;3.40;99.90
22112;DHT22;11222;50.872;4.312;2023-04-03T04:41:19;3.50;99.90
22112;DHT22;11222;50.872;4.312;2023-04-03T04:43:48;3.50;99.90
22112;DHT22;11222;50.872;4.312;2023-04-03T04:46:14;3.50;99.90
22112;DHT22;11222;50.872;4.312;2023-04-03T04:48:40;3.40;99.90
22112;DHT22;11222;50.872;4.312;2023-04-03T04:51:06;3.40;99.90
22112;DHT22;11222;50.872;4.312;2023-04-03T04:53:32;3.40;99.90
22112;DHT22;11222;50.872;4.312;2023-04-03T04:55:58;3.30;99.90
22112;DHT22;11222;50.872;4.312;2023-04-03T04:58:24;3.30;99.90
22112;DHT22;11222;50.872;4.312;2023-04-03T05:00:50;3.30;99.90
22112;DHT22;11222;50.872;4.312;2023-04-03T05:03:15;3.40;99.90
22112;DHT22;11222;50.872;4.312;2023-04-03T05:05:41;3.30;99.90
22112;DHT22;11222;50.872;4.312;2023-04-03T05:08:07;3.20;99.90
22112;DHT22;11222;50.872;4.312;2023-04-03T05:10:34;3.20;99.90
22112;DHT22;11222;50.872;4.312;2023-04-03T05:12:59;3.10;99.90
22112;DHT22;11222;50.872;4.312;2023-04-03T05:15:25;3.10;99.90
22112;DHT22;11222;50.872;4.312;2023-04-03T05:17:52;3.10;99.90
22112;DHT22;11222;50.872;4.312;2023-04-03T05:20:18;3.10;99.90
22112;DHT22;11222;50.872;4.312;2023-04-03T05:22:44;3.10;99.90
22112;DHT22;11222;50.872;4.312;2023-04-03T05:25:09;3.10;99.90
22112;DHT22;11222;50.872;4.312;2023-04-03T05:27:35;3.30;99.90
22112;DHT22;11222;50.872;4.312;2023-04-03T05:30:01;3.30;99.90
22112;DHT22;11222;50.872;4.312;2023-04-03T05:32:27;3.40;99.90
22112;DHT22;11222;50.872;4.312;2023-04-03T05:34:53;3.40;99.90
22112;DHT22;11222;50.872;4.312;2023-04-03T05:37:19;3.30;99.90
22112;DHT22;11222;50.872;4.312;2023-04-03T05:39:44;3.20;99.90
22112;DHT22;11222;50.872;4.312;2023-04-03T05:42:10;3.40;99.90
22112;DHT22;11222;50.872;4.312;2023-04-03T05:44:37;3.50;99.90
22112;DHT22;11222;50.872;4.312;2023-04-03T05:47:03;3.60;99.90
22112;DHT22;11222;50.872;4.312;2023-04-03T05:49:29;3.50;99.90
22112;DHT22;11222;50.872;4.312;2023-04-03T05:51:55;3.50;99.90
22112;DHT22;11222;50.872;4.312;2023-04-03T05:54:27;3.50;99.90
22112;DHT22;11222;50.872;4.312;2023-04-03T05:56:53;3.50;99.90
22112;DHT22;11222;50.872;4.312;2023-04-03T05:59:19;3.50;99.90
22112;DHT22;11222;50.872;4.312;2023-04-03T06:01:47;3.60;99.90
22112;DHT22;11222;50.872;4.312;2023-04-03T06:04:13;3.60;99.90
22112;DHT22;11222;50.872;4.312;2023-04-03T06:06:46;3.70;99.90
22112;DHT22;11222;50.872;4.312;2023-04-03T06:09:13;3.60;99.90
22112;DHT22;11222;50.872;4.312;2023-04-03T06:11:39;3.60;99.90
22112;DHT22;11222;50.872;4.312;2023-04-03T06:14:05;3.60;99.90
22112;DHT22;11222;50.872;4.312;2023-04-03T06:16:30;3.50;99.90
22112;DHT22;11222;50.872;4.312;2023-04-03T06:18:56;3.50;99.90
22112;DHT22;11222;50.872;4.312;2023-04-03T06:21:22;3.50;99.90
22112;DHT22;11222;50.872;4.312;2023-04-03T06:23:48;3.60;99.90
22112;DHT22;11222;50.872;4.312;2023-04-03T06:26:13;3.60;99.90
22112;DHT22;11222;50.872;4.312;2023-04-03T06:28:39;3.60;99.90
22112;DHT22;11222;50.872;4.312;2023-04-03T06:31:05;3.60;99.90
22112;DHT22;11222;50.872;4.312;2023-04-03T06:33:30;3.60;99.90
22112;DHT22;11222;50.872;4.312;2023-04-03T06:35:59;3.70;99.90
22112;DHT22;11222;50.872;4.312;2023-04-03T06:38:25;3.80;99.90
22112;DHT22;11222;50.872;4.312;2023-04-03T06:40:51;4.00;99.90
22112;DHT22;11222;50.872;4.312;2023-04-03T06:43:17;4.00;99.90
22112;DHT22;11222;50.872;4.312;2023-04-03T06:45:43;4.20;99.90
22112;DHT22;11222;50.872;4.312;2023-04-03T06:48:09;4.40;99.90
22112;DHT22;11222;50.872;4.312;2023-04-03T06:50:34;4.50;99.90
22112;DHT22;11222;50.872;4.312;2023-04-03T06:53:00;4.60;99.90
22112;DHT22;11222;50.872;4.312;2023-04-03T06:55:26;4.70;99.90
22112;DHT22;11222;50.872;4.312;2023-04-03T06:57:52;4.90;99.90
22112;DHT22;11222;50.872;4.312;2023-04-03T07:00:18;4.70;99.90
22112;DHT22;11222;50.872;4.312;2023-04-03T07:02:44;4.70;99.90
22112;DHT22;11222;50.872;4.312;2023-04-03T07:05:10;4.60;99.90
22112;DHT22;11222;50.872;4.312;2023-04-03T07:07:37;4.50;99.90
22112;DHT22;11222;50.872;4.312;2023-04-03T07:10:04;4.50;99.90
22112;DHT22;11222;50.872;4.312;2023-04-03T07:12:30;4.40;99.90
22112;DHT22;11222;50.872;4.312;2023-04-03T07:14:55;4.40;99.90
22112;DHT22;11222;50.872;4.312;2023-04-03T07:17:21;4.50;99.90
22112;DHT22;11222;50.872;4.312;2023-04-03T07:19:47;4.50;99.90
22112;DHT22;11222;50.872;4.312;2023-04-03T07:22:12;4.50;99.90
22112;DHT22;11222;50.872;4.312;2023-04-03T07:24:38;4.60;99.90
22112;DHT22;11222;50.872;4.312;2023-04-03T07:27:04;4.60;99.90
22112;DHT22;11222;50.872;4.312;2023-04-03T07:29:30;4.60;99.90
22112;DHT22;11222;50.872;4.312;2023-04-03T07:31:56;4.60;99.90
22112;DHT22;11222;50.872;4.312;2023-04-03T07:34:22;4.60;99.90
22112;DHT22;11222;50.872;4.312;2023-04-03T07:36:48;4.70;99.90
22112;DHT22;11222;50.872;4.312;2023-04-03T07:39:14;4.70;99.90
22112;DHT22;11222;50.872;4.312;2023-04-03T07:41:39;4.70;99.90
22112;DHT22;11222;50.872;4.312;2023-04-03T07:44:05;4.70;99.90
22112;DHT22;11222;50.872;4.312;2023-04-03T07:46:31;4.70;99.90
22112;DHT22;11222;50.872;4.312;2023-04-03T07:48:57;4.70;99.90
22112;DHT22;11222;50.872;4.312;2023-04-03T07:51:23;4.70;99.90
22112;DHT22;11222;50.872;4.312;2023-04-03T07:53:50;4.80;99.90
22112;DHT22;11222;50.872;4.312;2023-04-03T07:56:16;4.80;99.90
22112;DHT22;11222;50.872;4.312;2023-04-03T07:58:42;4.80;99.90
22112;DHT22;11222;50.872;4.312;2023-04-03T08:01:08;4.80;99.90
22112;DHT22;11222;50.872;4.312;2023-04-03T08:03:34;4.80;99.90
22112;DHT22;11222;50.872;4.312;2023-04-03T08:06:06;4.90;99.90
22112;DHT22;11222;50.872;4.312;2023-04-03T08:08:32;5.00;99.90
22112;DHT22;11222;50.872;4.312;2023-04-03T08:11:00;4.90;99.90
22112;DHT22;11222;50.872;4.312;2023-04-03T08:13:26;4.90;99.90
22112;DHT22;11222;50.872;4.312;2023-04-03T08:15:52;5.00;99.90
22112;DHT22;11222;50.872;4.312;2023-04-03T08:18:18;5.00;99.90
22112;DHT22;11222;50.872;4.312;2023-04-03T08:20:47;5.10;99.90
22112;DHT22;11222;50.872;4.312;2023-04-03T08:23:13;5.10;99.90
22112;DHT22;11222;50.872;4.312;2023-04-03T08:25:41;5.20;99.90
22112;DHT22;11222;50.872;4.312;2023-04-03T08:28:08;5.30;99.90
22112;DHT22;11222;50.872;4.312;2023-04-03T08:30:33;5.50;99.90
22112;DHT22;11222;50.872;4.312;2023-04-03T08:33:03;5.60;99.90
22112;DHT22;11222;50.872;4.312;2023-04-03T08:35:29;5.70;99.90
22112;DHT22;11222;50.872;4.312;2023-04-03T08:37:55;5.70;99.90
22112;DHT22;11222;50.872;4.312;2023-04-03T08:40:22;5.80;99.90
22112;DHT22;11222;50.872;4.312;2023-04-03T08:46:03;5.80;99.90
22112;DHT22;11222;50.872;4.312;2023-04-03T08:48:36;5.80;99.90
22112;DHT22;11222;50.872;4.312;2023-04-03T08:51:16;5.80;99.90
22112;DHT22;11222;50.872;4.312;2023-04-03T08:53:51;6.00;99.90
22112;DHT22;11222;50.872;4.312;2023-04-03T08:56:21;6.30;99.90
22112;DHT22;11222;50.872;4.312;2023-04-03T08:58:51;6.50;99.90
22112;DHT22;11222;50.872;4.312;2023-04-03T09:01:35;6.60;99.90
22112;DHT22;11222;50.872;4.312;2023-04-03T09:04:02;6.70;99.90
22112;DHT22;11222;50.872;4.312;2023-04-03T09:06:31;6.80;99.90
22112;DHT22;11222;50.872;4.312;2023-04-03T09:09:39;7.10;99.90
22112;DHT22;11222;50.872;4.312;2023-04-03T09:12:26;8.10;99.90
22112;DHT22;11222;50.872;4.312;2023-04-03T09:18:05;9.50;99.90
22112;DHT22;11222;50.872;4.312;2023-04-03T09:25:43;11.20;99.90
22112;DHT22;11222;50.872;4.312;2023-04-03T09:28:09;11.90;99.90
22112;DHT22;11222;50.872;4.312;2023-04-03T09:30:35;12.40;99.90
22112;DHT22;11222;50.872;4.312;2023-04-03T09:33:02;11.80;99.90
22112;DHT22;11222;50.872;4.312;2023-04-03T09:35:29;10.80;99.90
22112;DHT22;11222;50.872;4.312;2023-04-03T09:40:41;11.50;99.90
22112;DHT22;11222;50.872;4.312;2023-04-03T09:43:33;12.70;99.90
22112;DHT22;11222;50.872;4.312;2023-04-03T09:46:25;12.50;99.90
22112;DHT22;11222;50.872;4.312;2023-04-03T09:49:00;11.50;99.90
22112;DHT22;11222;50.872;4.312;2023-04-03T09:51:27;12.00;99.90
22112;DHT22;11222;50.872;4.312;2023-04-03T09:53:54;12.20;99.90
22112;DHT22;11222;50.872;4.312;2023-04-03T09:56:25;12.20;99.90
22112;DHT22;11222;50.872;4.312;2023-04-03T09:59:07;12.80;99.90
22112;DHT22;11222;50.872;4.312;2023-04-03T10:01:38;12.80;99.90
22112;DHT22;11222;50.872;4.312;2023-04-03T10:04:09;12.70;99.90
22112;DHT22;11222;50.872;4.312;2023-04-03T10:06:52;13.10;99.90
22112;DHT22;11222;50.872;4.312;2023-04-03T10:09:26;12.50;99.90
22112;DHT22;11222;50.872;4.312;2023-04-03T10:14:31;13.60;97.20
22112;DHT22;11222;50.872;4.312;2023-04-03T10:17:05;12.90;98.60
22112;DHT22;11222;50.872;4.312;2023-04-03T10:19:50;12.90;99.90
22112;DHT22;11222;50.872;4.312;2023-04-03T10:27:53;13.60;95.00
22112;DHT22;11222;50.872;4.312;2023-04-03T10:30:47;12.40;99.30
22112;DHT22;11222;50.872;4.312;2023-04-03T10:44:15;14.70;89.00
22112;DHT22;11222;50.872;4.312;2023-04-03T10:46:50;14.30;84.30
22112;DHT22;11222;50.872;4.312;2023-04-03T10:51:56;13.60;84.70
22112;DHT22;11222;50.872;4.312;2023-04-03T10:54:36;13.30;89.70
22112;DHT22;11222;50.872;4.312;2023-04-03T10:57:05;13.80;86.90
22112;DHT22;11222;50.872;4.312;2023-04-03T10:59:45;14.70;85.70
22112;DHT22;11222;50.872;4.312;2023-04-03T11:02:30;15.70;82.00
22112;DHT22;11222;50.872;4.312;2023-04-03T11:05:07;14.10;80.50
22112;DHT22;11222;50.872;4.312;2023-04-03T11:07:42;14.90;79.70
22112;DHT22;11222;50.872;4.312;2023-04-03T11:12:44;14.60;79.60
22112;DHT22;11222;50.872;4.312;2023-04-03T11:15:15;14.00;79.40
22112;DHT22;11222;50.872;4.312;2023-04-03T11:17:54;13.80;81.10
22112;DHT22;11222;50.872;4.312;2023-04-03T11:20:32;13.90;80.20
22112;DHT22;11222;50.872;4.312;2023-04-03T11:23:04;13.60;82.50
22112;DHT22;11222;50.872;4.312;2023-04-03T11:25:36;13.50;81.90
22112;DHT22;11222;50.872;4.312;2023-04-03T11:28:11;14.00;82.20
22112;DHT22;11222;50.872;4.312;2023-04-03T11:36:08;15.20;76.60
22112;DHT22;11222;50.872;4.312;2023-04-03T11:38:37;15.40;70.80
22112;DHT22;11222;50.872;4.312;2023-04-03T11:41:07;15.20;70.90
22112;DHT22;11222;50.872;4.312;2023-04-03T11:43:55;14.80;71.20
22112;DHT22;11222;50.872;4.312;2023-04-03T11:46:22;15.10;72.10
22112;DHT22;11222;50.872;4.312;2023-04-03T11:48:49;15.10;71.50
22112;DHT22;11222;50.872;4.312;2023-04-03T11:53:42;14.90;70.30
22112;DHT22;11222;50.872;4.312;2023-04-03T12:04:15;14.70;71.60
22112;DHT22;11222;50.872;4.312;2023-04-03T12:06:42;14.00;72.60
22112;DHT22;11222;50.872;4.312;2023-04-03T12:09:28;13.30;75.30
22112;DHT22;11222;50.872;4.312;2023-04-03T12:11:56;14.20;73.60
22112;DHT22;11222;50.872;4.312;2023-04-03T12:14:23;13.90;77.10
22112;DHT22;11222;50.872;4.312;2023-04-03T12:16:53;12.70;79.90
22112;DHT22;11222;50.872;4.312;2023-04-03T12:19:37;12.50;84.60
22112;DHT22;11222;50.872;4.312;2023-04-03T12:22:16;12.00;87.00
22112;DHT22;11222;50.872;4.312;2023-04-03T12:24:45;11.40;88.40
22112;DHT22;11222;50.872;4.312;2023-04-03T12:27:32;11.20;90.30
22112;DHT22;11222;50.872;4.312;2023-04-03T12:30:13;11.30;91.10
22112;DHT22;11222;50.872;4.312;2023-04-03T12:35:28;11.10;78.60
22112;DHT22;11222;50.872;4.312;2023-04-03T12:41:23;10.80;80.20
22112;DHT22;11222;50.872;4.312;2023-04-03T12:46:51;10.60;82.50
22112;DHT22;11222;50.872;4.312;2023-04-03T12:51:52;10.60;85.40
22112;DHT22;11222;50.872;4.312;2023-04-03T12:54:36;10.50;83.10
22112;DHT22;11222;50.872;4.312;2023-04-03T12:57:10;10.70;86.40
22112;DHT22;11222;50.872;4.312;2023-04-03T12:59:36;10.80;81.60
22112;DHT22;11222;50.872;4.312;2023-04-03T13:02:02;10.70;81.10
22112;DHT22;11222;50.872;4.312;2023-04-03T13:04:30;10.70;77.20
22112;DHT22;11222;50.872;4.312;2023-04-03T13:06:56;10.80;78.20
22112;DHT22;11222;50.872;4.312;2023-04-03T13:09:26;10.80;79.70
22112;DHT22;11222;50.872;4.312;2023-04-03T13:12:15;10.80;76.50
22112;DHT22;11222;50.872;4.312;2023-04-03T13:14:52;10.70;75.60
22112;DHT22;11222;50.872;4.312;2023-04-03T13:17:18;10.60;76.90
22112;DHT22;11222;50.872;4.312;2023-04-03T13:19:45;10.60;76.10
22112;DHT22;11222;50.872;4.312;2023-04-03T13:22:27;10.30;76.20
22112;DHT22;11222;50.872;4.312;2023-04-03T13:24:55;10.50;76.60
22112;DHT22;11222;50.872;4.312;2023-04-03T13:27:22;10.70;76.60
22112;DHT22;11222;50.872;4.312;2023-04-03T13:29:53;10.80;74.30
22112;DHT22;11222;50.872;4.312;2023-04-03T13:32:22;10.80;73.10
22112;DHT22;11222;50.872;4.312;2023-04-03T13:34:49;10.70;71.40
22112;DHT22;11222;50.872;4.312;2023-04-03T13:37:29;10.60;70.60
22112;DHT22;11222;50.872;4.312;2023-04-03T13:42:36;10.70;69.40
22112;DHT22;11222;50.872;4.312;2023-04-03T13:45:25;10.60;69.20
22112;DHT22;11222;50.872;4.312;2023-04-03T13:48:07;10.60;68.20
22112;DHT22;11222;50.872;4.312;2023-04-03T13:51:00;10.60;69.00
22112;DHT22;11222;50.872;4.312;2023-04-03T13:53:28;10.80;70.40
22112;DHT22;11222;50.872;4.312;2023-04-03T13:58:31;10.50;70.90
22112;DHT22;11222;50.872;4.312;2023-04-03T14:03:51;10.70;72.70
22112;DHT22;11222;50.872;4.312;2023-04-03T14:06:18;10.80;73.20
22112;DHT22;11222;50.872;4.312;2023-04-03T14:08:44;10.80;73.70
22112;DHT22;11222;50.872;4.312;2023-04-03T14:11:22;10.80;71.50
22112;DHT22;11222;50.872;4.312;2023-04-03T14:13:50;10.70;72.10
22112;DHT22;11222;50.872;4.312;2023-04-03T14:16:22;10.60;73.80
22112;DHT22;11222;50.872;4.312;2023-04-03T14:18:49;10.70;74.40
22112;DHT22;11222;50.872;4.312;2023-04-03T14:21:17;10.70;73.40
22112;DHT22;11222;50.872;4.312;2023-04-03T14:23:43;10.60;72.90
22112;DHT22;11222;50.872;4.312;2023-04-03T14:26:14;10.70;74.20
22112;DHT22;11222;50.872;4.312;2023-04-03T14:28:42;10.70;72.80
22112;DHT22;11222;50.872;4.312;2023-04-03T14:31:10;10.60;73.40
22112;DHT22;11222;50.872;4.312;2023-04-03T14:33:36;10.70;73.10
22112;DHT22;11222;50.872;4.312;2023-04-03T14:36:14;10.60;72.00
22112;DHT22;11222;50.872;4.312;2023-04-03T14:38:41;10.70;72.70
22112;DHT22;11222;50.872;4.312;2023-04-03T14:41:07;10.70;72.30
22112;DHT22;11222;50.872;4.312;2023-04-03T14:43:33;10.70;72.60
22112;DHT22;11222;50.872;4.312;2023-04-03T14:45:59;10.70;70.60
22112;DHT22;11222;50.872;4.312;2023-04-03T14:48:27;10.70;69.70
22112;DHT22;11222;50.872;4.312;2023-04-03T14:50:53;10.70;69.60
22112;DHT22;11222;50.872;4.312;2023-04-03T14:53:19;10.80;69.80
22112;DHT22;11222;50.872;4.312;2023-04-03T14:55:48;10.80;68.70
22112;DHT22;11222;50.872;4.312;2023-04-03T14:58:16;10.60;69.60
22112;DHT22;11222;50.872;4.312;2023-04-03T15:00:42;10.60;70.40
22112;DHT22;11222;50.872;4.312;2023-04-03T15:03:17;10.60;70.70
22112;DHT22;11222;50.872;4.312;2023-04-03T15:05:43;10.60;71.40
22112;DHT22;11222;50.872;4.312;2023-04-03T15:08:22;10.60;72.60
22112;DHT22;11222;50.872;4.312;2023-04-03T15:10:50;10.70;73.00
22112;DHT22;11222;50.872;4.312;2023-04-03T15:13:18;10.70;72.80
22112;DHT22;11222;50.872;4.312;2023-04-03T15:15:45;10.60;73.70
22112;DHT22;11222;50.872;4.312;2023-04-03T15:18:18;10.70;72.90
22112;DHT22;11222;50.872;4.312;2023-04-03T15:20:44;10.60;70.90
22112;DHT22;11222;50.872;4.312;2023-04-03T15:23:14;10.70;71.10
22112;DHT22;11222;50.872;4.312;2023-04-03T15:25:42;10.90;70.40
22112;DHT22;11222;50.872;4.312;2023-04-03T15:28:22;10.90;70.40
22112;DHT22;11222;50.872;4.312;2023-04-03T15:30:49;10.90;70.70
22112;DHT22;11222;50.872;4.312;2023-04-03T15:33:15;10.90;70.20
22112;DHT22;11222;50.872;4.312;2023-04-03T15:35:41;10.90;71.20
22112;DHT22;11222;50.872;4.312;2023-04-03T15:38:08;10.90;71.80
22112;DHT22;11222;50.872;4.312;2023-04-03T15:40:33;10.90;68.70
22112;DHT22;11222;50.872;4.312;2023-04-03T15:42:59;10.80;69.60
22112;DHT22;11222;50.872;4.312;2023-04-03T15:45:26;10.80;71.50
22112;DHT22;11222;50.872;4.312;2023-04-03T15:47:53;10.90;70.20
22112;DHT22;11222;50.872;4.312;2023-04-03T15:50:19;10.80;69.80
22112;DHT22;11222;50.872;4.312;2023-04-03T15:52:47;10.90;70.90
22112;DHT22;11222;50.872;4.312;2023-04-03T15:55:13;10.90;70.00
22112;DHT22;11222;50.872;4.312;2023-04-03T15:57:39;10.70;70.00
22112;DHT22;11222;50.872;4.312;2023-04-03T16:00:05;10.70;69.90
22112;DHT22;11222;50.872;4.312;2023-04-03T16:02:32;10.80;71.40
22112;DHT22;11222;50.872;4.312;2023-04-03T16:04:59;10.70;70.50
22112;DHT22;11222;50.872;4.312;2023-04-03T16:07:24;10.80;71.10
22112;DHT22;11222;50.872;4.312;2023-04-03T16:09:50;10.80;70.80
22112;DHT22;11222;50.872;4.312;2023-04-03T16:12:16;10.70;70.70
22112;DHT22;11222;50.872;4.312;2023-04-03T16:14:41;10.50;71.90
22112;DHT22;11222;50.872;4.312;2023-04-03T16:17:07;10.50;71.50
22112;DHT22;11222;50.872;4.312;2023-04-03T16:19:33;10.60;71.70
22112;DHT22;11222;50.872;4.312;2023-04-03T16:21:59;10.80;71.10
22112;DHT22;11222;50.872;4.312;2023-04-03T16:24:25;10.80;70.70
22112;DHT22;11222;50.872;4.312;2023-04-03T16:26:50;10.70;71.70
22112;DHT22;11222;50.872;4.312;2023-04-03T16:29:18;10.70;71.30
22112;DHT22;11222;50.872;4.312;2023-04-03T16:31:44;10.70;71.80
22112;DHT22;11222;50.872;4.312;2023-04-03T16:34:10;10.70;72.70
22112;DHT22;11222;50.872;4.312;2023-04-03T16:36:36;10.70;73.10
22112;DHT22;11222;50.872;4.312;2023-04-03T16:39:03;10.70;72.00
22112;DHT22;11222;50.872;4.312;2023-04-03T16:41:29;10.70;71.80
22112;DHT22;11222;50.872;4.312;2023-04-03T16:43:55;10.70;71.90
22112;DHT22;11222;50.872;4.312;2023-04-03T16:46:20;10.60;72.80
22112;DHT22;11222;50.872;4.312;2023-04-03T16:48:46;10.80;72.60
22112;DHT22;11222;50.872;4.312;2023-04-03T16:51:12;10.70;73.10
22112;DHT22;11222;50.872;4.312;2023-04-03T16:53:38;10.70;73.90
22112;DHT22;11222;50.872;4.312;2023-04-03T16:56:04;10.70;75.00
22112;DHT22;11222;50.872;4.312;2023-04-03T16:58:30;10.50;74.80
22112;DHT22;11222;50.872;4.312;2023-04-03T17:00:56;10.40;76.00
22112;DHT22;11222;50.872;4.312;2023-04-03T17:03:22;10.40;77.00
22112;DHT22;11222;50.872;4.312;2023-04-03T17:05:51;10.20;77.80